Time;durP1;ratioP1;P1;durP2;ratioP2;P2;SDS_P1;SDS_P2;PMS_P1;PMS_P2;Temp;Humidity;BMP_temperature;BMP_pressure;BME280_temperature;BME280_humidity;BME280_pressure;Samples;Min_cycle;Max_cycle;Signal;HPM_P1;HPM_P2
2021/03/23 06:00:33;;;;;;;0.00;0.00;;;;;;;;;;5082475;28;20356;-64
2021/03/23 06:03:09;;;;;;;11.10;10.57;;;;;;;;;;5070884;28;20031;-62
2021/03/23 06:05:37;;;;;;;0.00;0.00;;;;;;;;;;5053704;28;20055;-60
2021/03/23 06:08:05;;;;;;;0.20;0.20;;;;;;;;;;5064560;28;20029;-60
2021/03/23 06:10:32;;;;;;;0.00;0.00;;;;;;;;;;5072236;28;20730;-61
2021/03/23 06:13:16;;;;;;;0.00;0.00;;;;;;;;;;5070292;28;20104;-62
2021/03/23 06:15:55;;;;;;;0.00;0.00;;;;;;;;;;5068667;28;20036;-61
2021/03/23 06:18:26;;;;;;;0.00;0.00;;;;;;;;;;5066078;28;20025;-62
2021/03/23 06:20:54;;;;;;;0.00;0.00;;;;;;;;;;5059432;28;20035;-60
2021/03/23 06:23:39;;;;;;;0.00;0.00;;;;;;;;;;5066760;28;20124;-61
2021/03/23 06:26:18;;;;;;;2.08;1.55;;;;;;;;;;5049597;28;20395;-61
2021/03/23 06:28:57;;;;;;;0.10;0.10;;;;;;;;;;5069123;28;20041;-62
2021/03/23 06:31:43;;;;;;;0.40;0.40;;;;;;;;;;5067584;28;20037;-61
2021/03/23 06:34:17;;;;;;;0.10;0.10;;;;;;;;;;5049236;28;20060;-61
2021/03/23 06:36:43;;;;;;;0.10;0.10;;;;;;;;;;5046488;28;20123;-61
2021/03/23 06:39:10;;;;;;;0.10;0.10;;;;;;;;;;5046846;28;20502;-61
2021/03/23 06:41:49;;;;;;;0.10;0.10;;;;;;;;;;5046707;28;20037;-60
2021/03/23 06:44:15;;;;;;;0.10;0.10;;;;;;;;;;5043927;28;20017;-60
2021/03/23 06:46:43;;;;;;;0.10;0.10;;;;;;;;;;5047169;28;20033;-61
2021/03/23 06:49:15;;;;;;;0.10;0.10;;;;;;;;;;5047279;28;20040;-62
2021/03/23 06:51:55;;;;;;;0.10;0.10;;;;;;;;;;5046543;28;20049;-62
2021/03/23 06:54:23;;;;;;;0.20;0.20;;;;;;;;;;5062947;28;20033;-62
2021/03/23 06:57:07;;;;;;;0.17;0.17;;;;;;;;;;5046236;28;20028;-60
2021/03/23 06:59:44;;;;;;;0.20;0.20;;;;;;;;;;5035816;28;20045;-62
2021/03/23 07:02:27;;;;;;;0.50;0.50;;;;;;;;;;5028242;28;20040;-63
2021/03/23 07:04:53;;;;;;;0.13;0.13;;;;;;;;;;5028958;28;20044;-60
2021/03/23 07:07:21;;;;;;;0.10;0.10;;;;;;;;;;5029199;28;20503;-63
2021/03/23 07:09:48;;;;;;;0.15;0.15;;;;;;;;;;5024647;28;20034;-61
2021/03/23 07:12:15;;;;;;;0.20;0.20;;;;;;;;;;5036494;28;20037;-63
2021/03/23 07:14:43;;;;;;;0.20;0.20;;;;;;;;;;5037221;28;20044;-61
2021/03/23 07:17:09;;;;;;;0.28;0.28;;;;;;;;;;5041873;28;20014;-61
2021/03/23 07:19:46;;;;;;;0.28;0.28;;;;;;;;;;5052394;28;20443;-61
2021/03/23 07:22:16;;;;;;;0.57;0.57;;;;;;;;;;5050718;28;20032;-61
2021/03/23 07:24:56;;;;;;;0.40;0.40;;;;;;;;;;5050380;28;20039;-62
2021/03/23 07:27:23;;;;;;;0.55;0.52;;;;;;;;;;5049298;28;20021;-61
2021/03/23 07:29:49;;;;;;;0.10;0.10;;;;;;;;;;5045004;28;20124;-62
2021/03/23 07:32:24;;;;;;;0.20;0.20;;;;;;;;;;5048767;28;20025;-61
2021/03/23 07:34:50;;;;;;;0.45;0.45;;;;;;;;;;5050643;28;20414;-61
2021/03/23 07:37:17;;;;;;;0.10;0.10;;;;;;;;;;5051204;28;20120;-61
2021/03/23 07:39:53;;;;;;;1.15;1.05;;;;;;;;;;5049613;28;20112;-64
2021/03/23 07:42:24;;;;;;;1.30;1.08;;;;;;;;;;5048036;28;20428;-62
2021/03/23 07:44:52;;;;;;;0.10;0.10;;;;;;;;;;5049502;28;20033;-62
2021/03/23 07:47:21;;;;;;;0.88;0.88;;;;;;;;;;5049902;28;20551;-62
2021/03/23 07:49:52;;;;;;;1.92;1.83;;;;;;;;;;5050746;28;20518;-62
2021/03/23 07:52:21;;;;;;;0.22;0.22;;;;;;;;;;5050600;28;20159;-62
2021/03/23 07:54:48;;;;;;;0.22;0.22;;;;;;;;;;5046248;28;20402;-61
2021/03/23 07:57:23;;;;;;;3.00;2.67;;;;;;;;;;5048405;28;20025;-62
2021/03/23 07:59:49;;;;;;;;;;;;;;;;;;5048518;28;20132;-62
2021/03/23 08:02:25;;;;;;;0.30;0.30;;;;;;;;;;5048116;28;19909;-62
2021/03/23 08:04:57;;;;;;;2.67;0.77;;;;;;;;;;5049744;28;20029;-63
2021/03/23 08:07:32;;;;;;;0.20;0.20;;;;;;;;;;5051311;28;20086;-61
2021/03/23 08:09:58;;;;;;;;;;;;;;;;;;5050472;28;20112;-62
2021/03/23 08:12:34;;;;;;;0.30;0.30;;;;;;;;;;5046807;28;19916;-61
2021/03/23 08:15:01;;;;;;;;;;;;;;;;;;5049420;28;20102;-61
2021/03/23 08:17:46;;;;;;;1.35;1.33;;;;;;;;;;5047739;28;19915;-65
2021/03/23 08:20:12;;;;;;;1.05;1.05;;;;;;;;;;5048078;28;20030;-61
2021/03/23 08:22:58;;;;;;;1.75;1.17;;;;;;;;;;5051026;28;20025;-60
2021/03/23 08:25:24;;;;;;;;;;;;;;;;;;5051490;28;20017;-63
2021/03/23 08:27:53;;;;;;;1.17;1.17;;;;;;;;;;5047433;28;19916;-65
2021/03/23 08:30:28;;;;;;;0.50;0.50;;;;;;;;;;5048828;28;20044;-63
2021/03/23 08:33:01;;;;;;;0.55;0.55;;;;;;;;;;5047780;28;20478;-63
2021/03/23 08:35:33;;;;;;;0.13;0.13;;;;;;;;;;5047543;28;20102;-63
2021/03/23 08:38:11;;;;;;;0.10;0.10;;;;;;;;;;5048317;28;20025;-64
2021/03/23 08:40:41;;;;;;;3.35;3.00;;;;;;;;;;5045401;28;20025;-62
2021/03/23 08:43:10;;;;;;;0.85;0.85;;;;;;;;;;5050473;28;20029;-63
2021/03/23 08:45:41;;;;;;;0.63;0.63;;;;;;;;;;5048645;28;20100;-64
2021/03/23 08:48:25;;;;;;;3.33;3.03;;;;;;;;;;5047690;28;20082;-64
2021/03/23 08:50:55;;;;;;;4.57;2.13;;;;;;;;;;5049361;28;20032;-63
2021/03/23 08:53:36;;;;;;;2.30;2.20;;;;;;;;;;5048949;28;20017;-63
2021/03/23 08:56:03;;;;;;;1.90;1.77;;;;;;;;;;5032171;28;20036;-62
2021/03/23 08:58:49;;;;;;;3.10;2.97;;;;;;;;;;5046519;28;20052;-62
2021/03/23 09:01:27;;;;;;;0.30;0.30;;;;;;;;;;5047911;28;20456;-63
2021/03/23 09:03:54;;;;;;;3.00;1.15;;;;;;;;;;5045841;28;20052;-64
2021/03/23 09:06:24;;;;;;;2.83;2.35;;;;;;;;;;5048539;28;20061;-63
2021/03/23 09:08:51;;;;;;;1.48;1.38;;;;;;;;;;5047668;28;20120;-63
2021/03/23 09:11:20;;;;;;;5.22;2.42;;;;;;;;;;5046363;28;20021;-63
2021/03/23 09:13:47;;;;;;;7.00;2.85;;;;;;;;;;5048012;28;20068;-63
2021/03/23 09:16:13;;;;;;;0.13;0.13;;;;;;;;;;5048256;28;20391;-64
2021/03/23 09:18:57;;;;;;;0.10;0.10;;;;;;;;;;5046199;28;20127;-64
2021/03/23 09:21:24;;;;;;;10.53;3.30;;;;;;;;;;5047066;28;20032;-63
2021/03/23 09:23:52;;;;;;;12.32;4.35;;;;;;;;;;5046077;28;20067;-62
2021/03/23 09:26:36;;;;;;;0.57;0.57;;;;;;;;;;5047158;28;20061;-62
2021/03/23 09:29:32;;;;;;;6.78;2.17;;;;;;;;;;5043385;28;20040;-63
2021/03/23 09:32:19;;;;;;;4.20;2.30;;;;;;;;;;5034137;28;20045;-63
2021/03/23 09:35:10;;;;;;;2.50;1.80;;;;;;;;;;5046770;28;20032;-63
2021/03/23 09:37:41;;;;;;;21.42;2.65;;;;;;;;;;5045299;28;20035;-65
2021/03/23 09:40:20;;;;;;;6.85;2.17;;;;;;;;;;5048207;28;20025;-63
2021/03/23 09:42:47;;;;;;;11.38;4.05;;;;;;;;;;5047258;28;20028;-63
2021/03/23 09:45:13;;;;;;;4.38;1.85;;;;;;;;;;5047333;28;20501;-64
2021/03/23 09:47:50;;;;;;;5.38;2.55;;;;;;;;;;5045358;28;20103;-62
2021/03/23 09:50:42;;;;;;;2.58;1.70;;;;;;;;;;5047954;28;20124;-64
2021/03/23 09:53:08;;;;;;;7.68;2.90;;;;;;;;;;5009706;28;20038;-64
2021/03/23 09:55:37;;;;;;;0.20;0.20;;;;;;;;;;5027212;28;20044;-64
2021/03/23 09:58:03;;;;;;;2.05;1.50;;;;;;;;;;5026602;28;20040;-62
2021/03/23 10:00:31;;;;;;;11.15;3.55;;;;;;;;;;5025348;28;20116;-64
2021/03/23 10:02:57;;;;;;;0.82;0.82;;;;;;;;;;5025738;28;20037;-63
2021/03/23 10:05:26;;;;;;;4.13;3.72;;;;;;;;;;5025742;28;20415;-62
2021/03/23 10:07:53;;;;;;;10.20;2.80;;;;;;;;;;5026042;28;20041;-63
2021/03/23 10:10:20;;;;;;;0.35;0.35;;;;;;;;;;5026690;28;20546;-62
2021/03/23 10:12:46;;;;;;;8.98;1.83;;;;;;;;;;5025413;28;20104;-62
2021/03/23 10:15:22;;;;;;;2.80;1.55;;;;;;;;;;5026384;28;20523;-62
2021/03/23 10:17:48;;;;;;;7.47;2.15;;;;;;;;;;5026906;28;20088;-63
2021/03/23 10:20:17;;;;;;;3.22;2.40;;;;;;;;;;5027546;28;20112;-64
2021/03/23 10:22:51;;;;;;;4.85;2.90;;;;;;;;;;5027021;28;20038;-62
2021/03/23 10:25:18;;;;;;;8.60;3.00;;;;;;;;;;5026882;28;20037;-64
2021/03/23 10:27:45;;;;;;;2.85;1.88;;;;;;;;;;5026677;28;20041;-62
2021/03/23 10:30:13;;;;;;;0.28;0.28;;;;;;;;;;5038731;28;20053;-63
2021/03/23 10:32:49;;;;;;;6.05;1.38;;;;;;;;;;5046773;28;20009;-64
2021/03/23 10:35:18;;;;;;;1.95;1.70;;;;;;;;;;5048025;28;20029;-64
2021/03/23 10:37:45;;;;;;;25.95;2.50;;;;;;;;;;5052138;28;20033;-64
2021/03/23 10:40:34;;;;;;;3.30;1.98;;;;;;;;;;5053350;28;20029;-63
2021/03/23 10:43:01;;;;;;;0.20;0.20;;;;;;;;;;5048662;28;20064;-63
2021/03/23 10:45:30;;;;;;;2.83;1.25;;;;;;;;;;5050178;28;20021;-63
2021/03/23 10:48:02;;;;;;;4.57;1.45;;;;;;;;;;5049670;28;20029;-63
2021/03/23 10:50:28;;;;;;;3.30;0.52;;;;;;;;;;5051393;28;20032;-63
2021/03/23 10:53:08;;;;;;;0.88;0.82;;;;;;;;;;5050653;28;20029;-62
2021/03/23 10:55:37;;;;;;;0.40;0.40;;;;;;;;;;5049297;28;20029;-62
2021/03/23 10:58:14;;;;;;;2.90;2.10;;;;;;;;;;5051022;28;20449;-62
2021/03/23 11:00:40;;;;;;;5.78;4.57;;;;;;;;;;5049883;28;20497;-62
2021/03/23 11:03:14;;;;;;;3.53;1.40;;;;;;;;;;5049904;28;20028;-63
2021/03/23 11:05:48;;;;;;;4.45;2.05;;;;;;;;;;5050976;28;20032;-64
2021/03/23 11:08:14;;;;;;;11.77;2.97;;;;;;;;;;5051346;28;20033;-64
2021/03/23 11:10:41;;;;;;;6.75;3.17;;;;;;;;;;5051619;28;20025;-61
2021/03/23 11:13:07;;;;;;;13.00;3.22;;;;;;;;;;5050775;28;20040;-63
2021/03/23 11:15:49;;;;;;;1.65;0.80;;;;;;;;;;5049792;28;20013;-63
2021/03/23 11:18:20;;;;;;;8.70;0.80;;;;;;;;;;5051085;28;20062;-63
2021/03/23 11:20:47;;;;;;;5.65;2.67;;;;;;;;;;5050707;28;20384;-63
2021/03/23 11:23:38;;;;;;;0.90;0.35;;;;;;;;;;5049909;28;20040;-64
2021/03/23 11:26:05;;;;;;;0.35;0.35;;;;;;;;;;5035651;28;20025;-62
2021/03/23 11:28:31;;;;;;;4.38;1.73;;;;;;;;;;5053718;28;20029;-63
2021/03/23 11:30:59;;;;;;;0.75;0.75;;;;;;;;;;5050899;28;20029;-64
2021/03/23 11:33:25;;;;;;;4.15;2.50;;;;;;;;;;5051164;28;20501;-64
2021/03/23 11:35:52;;;;;;;2.42;2.03;;;;;;;;;;5050761;28;20029;-63
2021/03/23 11:38:18;;;;;;;0.20;0.20;;;;;;;;;;5049356;28;20014;-63
2021/03/23 11:40:44;;;;;;;3.20;2.95;;;;;;;;;;5051624;28;20056;-65
2021/03/23 11:43:17;;;;;;;2.03;1.63;;;;;;;;;;5052460;28;20503;-63
2021/03/23 11:45:44;;;;;;;1.50;0.50;;;;;;;;;;5047947;28;20102;-64
2021/03/23 11:48:12;;;;;;;0.40;0.40;;;;;;;;;;5049336;28;20025;-64
2021/03/23 11:50:40;;;;;;;7.32;1.55;;;;;;;;;;5050553;28;20557;-63
2021/03/23 11:53:07;;;;;;;0.17;0.17;;;;;;;;;;5049709;28;20033;-65
2021/03/23 11:55:34;;;;;;;1.58;1.48;;;;;;;;;;5050763;28;20021;-61
2021/03/23 11:58:02;;;;;;;0.68;0.68;;;;;;;;;;5049914;28;20029;-63
2021/03/23 12:00:29;;;;;;;3.58;2.28;;;;;;;;;;5048806;28;20107;-63
2021/03/23 12:02:56;;;;;;;0.30;0.30;;;;;;;;;;5048330;28;20545;-64
2021/03/23 12:05:23;;;;;;;4.13;3.72;;;;;;;;;;5048376;28;20408;-64
2021/03/23 12:07:51;;;;;;;1.27;0.25;;;;;;;;;;5049600;28;20036;-66
2021/03/23 12:10:26;;;;;;;1.10;0.90;;;;;;;;;;5051278;28;20181;-62
2021/03/23 12:13:11;;;;;;;0.10;0.10;;;;;;;;;;5049115;28;20118;-65
2021/03/23 12:15:40;;;;;;;3.50;1.83;;;;;;;;;;5048947;28;20080;-65
2021/03/23 12:18:10;;;;;;;0.77;0.77;;;;;;;;;;5049987;28;20086;-64
2021/03/23 12:20:38;;;;;;;4.10;1.55;;;;;;;;;;5048239;28;20090;-63
2021/03/23 12:23:05;;;;;;;3.20;1.92;;;;;;;;;;5031986;28;20100;-65
2021/03/23 12:25:31;;;;;;;1.40;1.30;;;;;;;;;;5051841;28;20113;-63
2021/03/23 12:27:57;;;;;;;2.33;0.65;;;;;;;;;;5049201;28;20029;-63
2021/03/23 12:30:24;;;;;;;3.53;1.95;;;;;;;;;;5047429;28;20422;-63
2021/03/23 12:32:56;;;;;;;0.30;0.30;;;;;;;;;;5049266;28;20025;-63
2021/03/23 12:35:27;;;;;;;2.67;2.45;;;;;;;;;;5048343;28;20032;-65
2021/03/23 12:38:02;;;;;;;13.70;2.47;;;;;;;;;;5048458;28;20029;-65
2021/03/23 12:40:28;;;;;;;0.30;0.30;;;;;;;;;;5051304;28;20024;-65
2021/03/23 12:42:55;;;;;;;1.83;1.10;;;;;;;;;;5047894;28;20036;-64
2021/03/23 12:45:27;;;;;;;0.80;0.65;;;;;;;;;;5045349;28;20037;-69
2021/03/23 12:47:54;;;;;;;3.13;2.92;;;;;;;;;;5045033;28;20025;-67
2021/03/23 12:50:21;;;;;;;3.92;1.85;;;;;;;;;;5047713;28;20054;-68
2021/03/23 12:52:48;;;;;;;1.30;0.52;;;;;;;;;;5049367;28;20396;-66
2021/03/23 12:55:18;;;;;;;3.33;2.03;;;;;;;;;;5049218;28;20437;-68
2021/03/23 12:57:45;;;;;;;1.65;1.27;;;;;;;;;;5046991;28;20475;-68
2021/03/23 13:00:19;;;;;;;1.65;1.55;;;;;;;;;;5048875;28;20051;-67
2021/03/23 13:02:45;;;;;;;3.17;1.07;;;;;;;;;;5046579;28;20021;-67
2021/03/23 13:05:12;;;;;;;0.52;0.52;;;;;;;;;;5048335;28;20033;-67
2021/03/23 13:07:39;;;;;;;1.10;0.63;;;;;;;;;;5049509;28;20063;-65
2021/03/23 13:10:07;;;;;;;2.08;1.25;;;;;;;;;;5048757;28;20036;-66
2021/03/23 13:12:34;;;;;;;0.10;0.10;;;;;;;;;;5046475;28;20024;-67
2021/03/23 13:15:00;;;;;;;1.00;0.98;;;;;;;;;;5048949;28;20398;-64
2021/03/23 13:17:26;;;;;;;4.32;1.48;;;;;;;;;;5044515;28;20112;-67
2021/03/23 13:19:52;;;;;;;1.55;0.75;;;;;;;;;;5048562;28;20131;-64
2021/03/23 13:22:19;;;;;;;2.63;0.63;;;;;;;;;;5050787;28;20031;-64
2021/03/23 13:24:48;;;;;;;1.45;0.80;;;;;;;;;;5049145;28;20049;-64
2021/03/23 13:27:28;;;;;;;1.35;0.90;;;;;;;;;;5047365;28;20056;-65
2021/03/23 13:29:56;;;;;;;2.53;1.95;;;;;;;;;;5046669;28;20060;-64
2021/03/23 13:32:26;;;;;;;3.50;1.65;;;;;;;;;;5049631;28;20090;-65
2021/03/23 13:34:52;;;;;;;0.10;0.10;;;;;;;;;;5047256;28;20469;-65
2021/03/23 13:37:23;;;;;;;1.00;0.32;;;;;;;;;;5050668;28;20402;-65
2021/03/23 13:40:12;;;;;;;0.77;0.70;;;;;;;;;;5047545;28;20454;-64
2021/03/23 13:42:39;;;;;;;2.40;2.20;;;;;;;;;;5045283;28;20033;-63
2021/03/23 13:45:12;;;;;;;0.03;0.03;;;;;;;;;;5047034;28;20094;-65
2021/03/23 13:47:40;;;;;;;1.95;1.88;;;;;;;;;;5047028;28;20041;-65
2021/03/23 13:50:06;;;;;;;1.90;1.77;;;;;;;;;;5048207;28;20114;-65
2021/03/23 13:52:34;;;;;;;3.83;1.20;;;;;;;;;;5050946;28;20052;-64
2021/03/23 13:55:01;;;;;;;1.00;1.00;;;;;;;;;;5047581;28;20081;-64
2021/03/23 13:57:28;;;;;;;2.17;1.25;;;;;;;;;;5046966;28;20029;-64
2021/03/23 13:59:54;;;;;;;0.88;0.82;;;;;;;;;;5047149;28;20495;-65
2021/03/23 14:02:21;;;;;;;0.22;0.22;;;;;;;;;;5048607;28;20398;-64
2021/03/23 14:04:48;;;;;;;1.60;1.05;;;;;;;;;;5049133;28;20387;-65
2021/03/23 14:07:16;;;;;;;0.55;0.30;;;;;;;;;;5048662;28;20082;-64
2021/03/23 14:09:43;;;;;;;18.05;2.80;;;;;;;;;;5048063;28;20051;-64
2021/03/23 14:12:14;;;;;;;3.20;2.03;;;;;;;;;;5051907;28;20033;-63
2021/03/23 14:14:40;;;;;;;7.15;2.95;;;;;;;;;;5052782;28;20017;-65
2021/03/23 14:17:11;;;;;;;4.50;1.88;;;;;;;;;;5051429;28;20025;-65
2021/03/23 14:19:37;;;;;;;8.52;4.18;;;;;;;;;;5050772;28;20021;-64
2021/03/23 14:22:03;;;;;;;3.30;2.33;;;;;;;;;;5052842;28;20025;-64
2021/03/23 14:24:30;;;;;;;4.85;1.45;;;;;;;;;;5052125;28;20483;-64
2021/03/23 14:26:56;;;;;;;11.05;4.43;;;;;;;;;;5051737;28;20486;-65
2021/03/23 14:29:22;;;;;;;19.05;6.72;;;;;;;;;;5051894;28;20051;-63
2021/03/23 14:31:48;;;;;;;6.80;2.88;;;;;;;;;;5052878;28;20017;-64
2021/03/23 14:34:14;;;;;;;0.13;0.13;;;;;;;;;;5053357;28;20067;-65
2021/03/23 14:36:42;;;;;;;3.53;2.47;;;;;;;;;;5052023;28;20083;-64
2021/03/23 14:39:12;;;;;;;4.32;3.00;;;;;;;;;;5052030;28;20116;-64
2021/03/23 14:41:42;;;;;;;2.80;1.30;;;;;;;;;;5049867;28;20116;-65
2021/03/23 14:44:12;;;;;;;4.43;3.38;;;;;;;;;;5051689;28;20977;-65
2021/03/23 14:46:39;;;;;;;1.85;1.50;;;;;;;;;;5052761;28;20029;-64
2021/03/23 14:49:05;;;;;;;9.30;3.63;;;;;;;;;;5052737;28;20090;-65
2021/03/23 14:51:33;;;;;;;2.90;2.55;;;;;;;;;;5051754;28;20024;-64
2021/03/23 14:53:59;;;;;;;9.10;3.72;;;;;;;;;;5051430;28;20021;-65
2021/03/23 14:56:30;;;;;;;5.05;1.77;;;;;;;;;;5051615;28;20388;-64
2021/03/23 14:58:57;;;;;;;8.98;3.63;;;;;;;;;;5051253;28;20136;-65
2021/03/23 15:01:24;;;;;;;4.18;2.22;;;;;;;;;;5053043;28;20283;-63
2021/03/23 15:03:50;;;;;;;5.60;3.20;;;;;;;;;;5051076;28;20028;-64
2021/03/23 15:06:18;;;;;;;5.57;2.92;;;;;;;;;;5051123;28;20033;-65
2021/03/23 15:08:47;;;;;;;6.15;2.30;;;;;;;;;;5050644;28;20036;-65
2021/03/23 15:11:16;;;;;;;6.18;2.60;;;;;;;;;;5051313;28;20029;-64
2021/03/23 15:13:42;;;;;;;3.08;1.90;;;;;;;;;;5052058;28;20028;-64
2021/03/23 15:16:09;;;;;;;12.05;4.75;;;;;;;;;;5048590;28;20044;-64
2021/03/23 15:18:35;;;;;;;9.48;3.22;;;;;;;;;;5049568;28;20075;-65
2021/03/23 15:21:02;;;;;;;4.00;2.22;;;;;;;;;;5049975;28;20049;-65
2021/03/23 15:23:32;;;;;;;7.90;4.53;;;;;;;;;;5050631;28;20482;-66
2021/03/23 15:25:59;;;;;;;3.50;3.20;;;;;;;;;;5051140;28;20461;-64
2021/03/23 15:28:26;;;;;;;8.75;2.92;;;;;;;;;;5050806;28;20080;-65
2021/03/23 15:30:52;;;;;;;22.20;4.57;;;;;;;;;;5050301;28;20111;-66
2021/03/23 15:33:18;;;;;;;2.22;2.03;;;;;;;;;;5050651;28;20039;-66
2021/03/23 15:35:44;;;;;;;13.20;4.38;;;;;;;;;;5049013;28;20045;-64
2021/03/23 15:38:29;;;;;;;3.25;2.97;;;;;;;;;;5050471;28;20016;-66
2021/03/23 15:40:56;;;;;;;8.38;4.72;;;;;;;;;;5048894;28;20399;-66
2021/03/23 15:43:27;;;;;;;6.30;3.88;;;;;;;;;;5052624;28;20037;-66
2021/03/23 15:45:53;;;;;;;7.70;4.07;;;;;;;;;;5049314;28;20009;-65
2021/03/23 15:48:20;;;;;;;9.45;4.57;;;;;;;;;;5049544;28;20028;-66
2021/03/23 15:50:46;;;;;;;4.82;3.28;;;;;;;;;;5050632;28;20065;-64
2021/03/23 15:53:32;;;;;;;6.65;3.15;;;;;;;;;;5048754;28;20030;-67
2021/03/23 15:55:59;;;;;;;4.05;1.67;;;;;;;;;;5051169;28;20100;-65
2021/03/23 15:58:25;;;;;;;6.70;2.05;;;;;;;;;;5052790;28;20063;-66
2021/03/23 16:00:52;;;;;;;6.70;4.75;;;;;;;;;;5047265;28;20033;-66
2021/03/23 16:03:18;;;;;;;1.80;1.70;;;;;;;;;;5049880;28;20021;-66
2021/03/23 16:05:45;;;;;;;14.90;1.77;;;;;;;;;;5048228;28;20021;-66
2021/03/23 16:08:34;;;;;;;4.50;2.20;;;;;;;;;;5050451;28;20021;-66
2021/03/23 16:11:00;;;;;;;5.20;3.65;;;;;;;;;;5034389;28;20211;-64
2021/03/23 16:13:26;;;;;;;2.65;1.10;;;;;;;;;;5044819;28;20101;-65
2021/03/23 16:15:53;;;;;;;9.55;3.28;;;;;;;;;;5049784;28;20029;-63
2021/03/23 16:18:21;;;;;;;8.88;4.18;;;;;;;;;;5050159;28;20024;-64
2021/03/23 16:20:47;;;;;;;0.65;0.65;;;;;;;;;;5049100;28;20021;-65
2021/03/23 16:23:22;;;;;;;9.75;4.45;;;;;;;;;;5045374;28;20073;-65
2021/03/23 16:25:48;;;;;;;1.60;0.93;;;;;;;;;;5050019;28;20501;-65
2021/03/23 16:28:20;;;;;;;3.80;3.45;;;;;;;;;;5048806;28;20380;-65
2021/03/23 16:30:46;;;;;;;8.50;3.92;;;;;;;;;;5050468;28;20032;-65
2021/03/23 16:33:13;;;;;;;3.40;1.30;;;;;;;;;;5049492;28;20025;-64
2021/03/23 16:35:40;;;;;;;0.10;0.10;;;;;;;;;;5050290;28;20017;-65
2021/03/23 16:38:06;;;;;;;12.65;4.55;;;;;;;;;;5046839;28;20118;-64
2021/03/23 16:40:33;;;;;;;8.10;3.38;;;;;;;;;;5051865;28;20028;-65
2021/03/23 16:43:01;;;;;;;0.52;0.47;;;;;;;;;;5044977;28;20036;-65
2021/03/23 16:45:32;;;;;;;1.73;1.23;;;;;;;;;;5048426;28;20053;-65
2021/03/23 16:47:59;;;;;;;0.65;0.63;;;;;;;;;;5041348;28;20576;-65
2021/03/23 16:50:26;;;;;;;5.90;2.80;;;;;;;;;;5049927;28;20426;-65
2021/03/23 16:52:52;;;;;;;0.68;0.52;;;;;;;;;;5047576;28;20029;-66
2021/03/23 16:55:23;;;;;;;3.22;2.92;;;;;;;;;;5046822;28;20056;-65
2021/03/23 16:57:50;;;;;;;3.03;2.60;;;;;;;;;;5045827;28;20036;-65
2021/03/23 17:00:17;;;;;;;1.83;1.63;;;;;;;;;;5046709;28;20075;-65
2021/03/23 17:02:43;;;;;;;5.38;2.67;;;;;;;;;;5041655;28;20465;-65
2021/03/23 17:05:09;;;;;;;3.17;1.63;;;;;;;;;;5039217;28;20029;-64
2021/03/23 17:07:36;;;;;;;7.13;3.97;;;;;;;;;;5040420;28;20029;-62
2021/03/23 17:10:02;;;;;;;8.50;4.53;;;;;;;;;;5039664;28;20510;-63
2021/03/23 17:12:28;;;;;;;2.78;2.15;;;;;;;;;;5040827;28;20096;-65
2021/03/23 17:14:54;;;;;;;3.97;1.58;;;;;;;;;;5043180;28;20025;-63
2021/03/23 17:17:20;;;;;;;1.65;1.55;;;;;;;;;;5046323;28;20017;-65
2021/03/23 17:19:46;;;;;;;1.63;1.52;;;;;;;;;;5041825;28;20071;-65
2021/03/23 17:22:19;;;;;;;0.40;0.40;;;;;;;;;;5048450;28;20043;-63
2021/03/23 17:24:46;;;;;;;4.25;1.33;;;;;;;;;;5046838;28;20033;-62
2021/03/23 17:27:12;;;;;;;4.07;2.38;;;;;;;;;;5048578;28;20436;-61
2021/03/23 17:29:39;;;;;;;1.75;1.05;;;;;;;;;;5043674;28;20715;-61
2021/03/23 17:32:05;;;;;;;0.82;0.82;;;;;;;;;;5040831;28;20025;-65
2021/03/23 17:34:31;;;;;;;4.80;1.92;;;;;;;;;;5048704;28;20103;-66
2021/03/23 17:36:58;;;;;;;4.82;3.35;;;;;;;;;;5049058;28;20071;-64
2021/03/23 17:39:24;;;;;;;7.32;1.42;;;;;;;;;;5048303;28;20021;-62
2021/03/23 17:41:50;;;;;;;1.02;0.80;;;;;;;;;;5044212;28;20016;-65
2021/03/23 17:44:16;;;;;;;3.05;2.05;;;;;;;;;;5047532;28;20050;-64
2021/03/23 17:46:42;;;;;;;0.63;0.63;;;;;;;;;;5049993;28;20025;-65
2021/03/23 17:49:09;;;;;;;3.13;1.60;;;;;;;;;;5044088;28;20051;-67
2021/03/23 17:51:36;;;;;;;1.98;1.65;;;;;;;;;;5049357;28;20032;-65
2021/03/23 17:54:02;;;;;;;6.10;2.53;;;;;;;;;;5047193;28;20128;-62
2021/03/23 17:56:28;;;;;;;0.10;0.10;;;;;;;;;;5041654;28;20090;-67
2021/03/23 17:58:54;;;;;;;0.82;0.82;;;;;;;;;;5045405;28;20552;-65
2021/03/23 18:01:21;;;;;;;4.55;4.07;;;;;;;;;;5049394;28;20047;-65
2021/03/23 18:03:48;;;;;;;0.50;0.50;;;;;;;;;;5048270;28;20509;-67
2021/03/23 18:06:14;;;;;;;0.73;0.73;;;;;;;;;;5047483;28;20112;-66
2021/03/23 18:08:41;;;;;;;5.38;1.75;;;;;;;;;;5037224;28;20041;-68
2021/03/23 18:11:07;;;;;;;0.38;0.38;;;;;;;;;;5030594;28;20025;-68
2021/03/23 18:13:35;;;;;;;0.10;0.10;;;;;;;;;;5030828;28;20533;-68
2021/03/23 18:16:02;;;;;;;0.10;0.10;;;;;;;;;;5035677;28;20030;-67
2021/03/23 18:18:28;;;;;;;0.20;0.20;;;;;;;;;;5043073;28;20431;-68
2021/03/23 18:20:54;;;;;;;0.17;0.17;;;;;;;;;;5044785;28;20052;-67
2021/03/23 18:23:21;;;;;;;0.40;0.40;;;;;;;;;;5046622;28;20018;-67
2021/03/23 18:25:47;;;;;;;0.75;0.75;;;;;;;;;;5048177;28;20075;-67
2021/03/23 18:28:14;;;;;;;0.10;0.10;;;;;;;;;;5051963;28;20048;-67
2021/03/23 18:30:40;;;;;;;0.10;0.10;;;;;;;;;;5050953;28;20052;-67
2021/03/23 18:33:08;;;;;;;0.10;0.10;;;;;;;;;;5050975;28;20029;-66
2021/03/23 18:35:35;;;;;;;0.38;0.38;;;;;;;;;;5050102;28;20044;-67
2021/03/23 18:38:01;;;;;;;0.10;0.10;;;;;;;;;;5047679;28;20017;-67
2021/03/23 18:40:29;;;;;;;0.10;0.10;;;;;;;;;;5054310;28;20518;-68
2021/03/23 18:42:55;;;;;;;0.10;0.10;;;;;;;;;;5053088;28;20037;-67
2021/03/23 18:45:26;;;;;;;0.20;0.20;;;;;;;;;;5051093;28;20045;-68
2021/03/23 18:47:53;;;;;;;0.10;0.10;;;;;;;;;;5051618;28;20036;-67
2021/03/23 18:50:20;;;;;;;0.10;0.10;;;;;;;;;;5062395;28;20030;-67
2021/03/23 18:52:46;;;;;;;0.10;0.10;;;;;;;;;;5051414;28;20082;-67
2021/03/23 18:55:17;;;;;;;0.10;0.10;;;;;;;;;;5052405;28;20394;-67
2021/03/23 18:57:43;;;;;;;0.10;0.10;;;;;;;;;;5055690;28;20021;-66
2021/03/23 19:00:09;;;;;;;0.10;0.10;;;;;;;;;;5047250;28;20518;-67
2021/03/23 19:02:35;;;;;;;0.10;0.10;;;;;;;;;;5045866;28;20612;-68
2021/03/23 19:05:02;;;;;;;0.10;0.10;;;;;;;;;;5050827;28;20123;-66
2021/03/23 19:07:28;;;;;;;0.13;0.13;;;;;;;;;;5049913;28;20033;-70
2021/03/23 19:09:54;;;;;;;0.10;0.10;;;;;;;;;;5051837;28;20037;-67
2021/03/23 19:12:20;;;;;;;0.10;0.10;;;;;;;;;;5051408;28;20025;-65
2021/03/23 19:14:46;;;;;;;1.30;0.85;;;;;;;;;;5049244;28;20453;-65
2021/03/23 19:17:12;;;;;;;0.10;0.10;;;;;;;;;;5051351;28;20043;-67
2021/03/23 19:19:38;;;;;;;0.10;0.10;;;;;;;;;;5052377;28;20035;-66
2021/03/23 19:22:05;;;;;;;0.10;0.10;;;;;;;;;;5051164;28;20020;-66
2021/03/23 19:24:31;;;;;;;0.10;0.10;;;;;;;;;;5051261;28;20052;-65
2021/03/23 19:26:57;;;;;;;0.13;0.13;;;;;;;;;;5051124;28;20040;-66
2021/03/23 19:29:23;;;;;;;0.10;0.10;;;;;;;;;;5050781;28;20399;-65
2021/03/23 19:31:49;;;;;;;0.10;0.10;;;;;;;;;;5051275;28;20043;-65
2021/03/23 19:34:15;;;;;;;0.10;0.10;;;;;;;;;;5048013;28;20462;-65
2021/03/23 19:36:41;;;;;;;1.77;1.45;;;;;;;;;;5046296;28;20049;-66
2021/03/23 19:39:07;;;;;;;0.10;0.10;;;;;;;;;;5046766;28;20013;-64
2021/03/23 19:41:34;;;;;;;0.10;0.10;;;;;;;;;;5048408;28;21281;-64
2021/03/23 19:44:01;;;;;;;9.07;6.18;;;;;;;;;;5048471;28;20104;-64
2021/03/23 19:46:27;;;;;;;6.97;0.90;;;;;;;;;;5049612;28;20017;-64
2021/03/23 19:48:55;;;;;;;0.13;0.13;;;;;;;;;;5048769;28;20040;-63
2021/03/23 19:51:23;;;;;;;0.10;0.10;;;;;;;;;;5048312;28;20078;-66
2021/03/23 19:53:50;;;;;;;0.30;0.30;;;;;;;;;;5047670;28;20017;-62
2021/03/23 19:56:19;;;;;;;28.17;3.03;;;;;;;;;;5047580;28;20030;-64
2021/03/23 19:58:45;;;;;;;0.10;0.10;;;;;;;;;;5049373;28;20055;-63
2021/03/23 20:01:12;;;;;;;0.35;0.35;;;;;;;;;;5048273;28;20473;-65
2021/03/23 20:03:38;;;;;;;0.68;0.68;;;;;;;;;;5045580;28;20147;-65
2021/03/23 20:06:04;;;;;;;0.10;0.10;;;;;;;;;;5046985;28;20057;-64
2021/03/23 20:08:30;;;;;;;0.10;0.10;;;;;;;;;;5047299;28;20399;-65
2021/03/23 20:10:57;;;;;;;0.10;0.10;;;;;;;;;;5048548;28;20190;-64
2021/03/23 20:13:24;;;;;;;0.10;0.10;;;;;;;;;;5048907;28;20028;-63
2021/03/23 20:15:50;;;;;;;0.20;0.20;;;;;;;;;;5045621;28;20017;-63
2021/03/23 20:18:17;;;;;;;0.10;0.10;;;;;;;;;;5047086;28;20576;-64
2021/03/23 20:20:45;;;;;;;0.20;0.20;;;;;;;;;;5046616;28;20029;-64
2021/03/23 20:23:19;;;;;;;0.10;0.10;;;;;;;;;;5047135;28;20553;-65
2021/03/23 20:25:45;;;;;;;0.10;0.10;;;;;;;;;;5048707;28;20035;-65
2021/03/23 20:28:12;;;;;;;0.10;0.10;;;;;;;;;;5047475;28;20411;-65
2021/03/23 20:30:39;;;;;;;0.10;0.10;;;;;;;;;;5046492;28;20035;-64
2021/03/23 20:33:06;;;;;;;0.10;0.10;;;;;;;;;;5046966;28;20079;-64
2021/03/23 20:35:34;;;;;;;0.10;0.10;;;;;;;;;;5046652;28;20037;-64
2021/03/23 20:38:00;;;;;;;0.10;0.10;;;;;;;;;;5047622;28;20063;-64
2021/03/23 20:40:26;;;;;;;0.10;0.10;;;;;;;;;;5049051;28;20116;-67
2021/03/23 20:42:53;;;;;;;1.75;1.75;;;;;;;;;;5046530;28;20021;-64
2021/03/23 20:45:19;;;;;;;0.10;0.10;;;;;;;;;;5046777;28;20044;-63
2021/03/23 20:47:47;;;;;;;0.10;0.10;;;;;;;;;;5046453;28;20009;-64
2021/03/23 20:50:15;;;;;;;0.20;0.20;;;;;;;;;;5046254;28;20029;-64
2021/03/23 20:52:41;;;;;;;0.32;0.32;;;;;;;;;;5048745;28;20025;-65
2021/03/23 20:55:08;;;;;;;0.45;0.45;;;;;;;;;;5047282;28;20041;-64